Time;durP1;ratioP1;P1;durP2;ratioP2;P2;SDS_P1;SDS_P2;PMS_P1;PMS_P2;Temp;Humidity;BMP_temperature;BMP_pressure;BME280_temperature;BME280_humidity;BME280_pressure;Samples;Min_cycle;Max_cycle;Signal;HPM_P1;HPM_P2
2021/03/04 00:02:01;;;;;;;29.23;16.30;;;13.40;51.60;;;;;;5073233;28;20192;-43
2021/03/04 00:04:26;;;;;;;19.97;15.27;;;13.40;51.70;;;;;;5073650;28;20200;-43
2021/03/04 00:06:52;;;;;;;24.53;16.60;;;13.40;51.70;;;;;;5073395;28;20306;-43
2021/03/04 00:09:18;;;;;;;21.40;16.37;;;13.50;51.50;;;;;;5073782;28;20188;-43
2021/03/04 00:11:43;;;;;;;20.93;16.80;;;13.60;51.40;;;;;;5072827;28;20430;-43
2021/03/04 00:14:09;;;;;;;23.27;16.70;;;13.60;51.30;;;;;;5069798;28;20202;-43
2021/03/04 00:16:35;;;;;;;26.23;17.20;;;13.70;51.20;;;;;;5068921;28;20184;-43
2021/03/04 00:19:00;;;;;;;25.77;17.53;;;13.70;51.20;;;;;;5072474;28;20196;-43
2021/03/04 00:21:26;;;;;;;30.33;17.13;;;13.70;51.20;;;;;;5072427;28;20291;-43
2021/03/04 00:23:51;;;;;;;20.07;15.87;;;13.70;51.10;;;;;;5074323;28;20199;-43
2021/03/04 00:26:17;;;;;;;21.10;15.90;;;13.70;51.00;;;;;;5074041;28;20226;-43
2021/03/04 00:28:42;;;;;;;26.20;17.80;;;13.70;51.00;;;;;;5072961;28;20196;-43
2021/03/04 00:31:08;;;;;;;21.00;16.73;;;13.70;51.00;;;;;;5072715;28;20219;-43
2021/03/04 00:33:34;;;;;;;30.43;16.60;;;13.50;51.60;;;;;;5073358;28;20196;-43
2021/03/04 00:35:59;;;;;;;29.53;16.60;;;12.90;52.80;;;;;;5072368;28;20275;-43
2021/03/04 00:38:25;;;;;;;22.40;17.30;;;13.00;53.20;;;;;;5072397;28;20188;-43
2021/03/04 00:40:50;;;;;;;25.07;17.23;;;13.00;53.10;;;;;;5072838;28;20558;-43
2021/03/04 00:43:16;;;;;;;22.30;17.17;;;13.00;53.10;;;;;;5077187;28;20219;-43
2021/03/04 00:45:42;;;;;;;29.50;18.30;;;13.10;52.90;;;;;;5072228;28;20204;-43
2021/03/04 00:48:09;;;;;;;25.03;17.60;;;13.20;52.60;;;;;;5070754;28;20192;-43
2021/03/04 00:50:35;;;;;;;24.30;15.47;;;13.30;52.40;;;;;;5072388;28;20283;-43
2021/03/04 00:53:02;;;;;;;20.40;17.30;;;13.40;52.10;;;;;;5072184;28;20431;-43
2021/03/04 00:55:28;;;;;;;20.20;15.90;;;13.40;52.00;;;;;;5070553;28;20960;-43
2021/03/04 00:57:53;;;;;;;22.50;17.47;;;13.30;52.10;;;;;;5072366;28;20537;-42
2021/03/04 01:00:19;;;;;;;25.20;16.67;;;13.30;52.60;;;;;;5072754;28;20199;-43
2021/03/04 01:02:45;;;;;;;24.23;18.17;;;13.30;52.00;;;;;;5072065;28;20188;-43
2021/03/04 01:05:11;;;;;;;23.37;16.70;;;13.20;52.10;;;;;;5071882;28;20204;-43
2021/03/04 01:07:36;;;;;;;25.43;16.70;;;13.30;52.10;;;;;;5072513;28;20312;-42
2021/03/04 01:10:08;;;;;;;25.60;15.77;;;13.30;52.10;;;;;;5071997;28;20466;-43
2021/03/04 01:12:34;;;;;;;17.40;15.33;;;13.30;51.90;;;;;;5072027;28;20273;-43
2021/03/04 01:14:59;;;;;;;24.50;16.70;;;13.30;51.70;;;;;;5069699;28;20897;-43
2021/03/04 01:17:26;;;;;;;22.00;16.43;;;13.40;51.60;;;;;;5072778;28;20229;-43
2021/03/04 01:19:51;;;;;;;18.30;14.30;;;13.40;51.50;;;;;;5071783;28;20434;-43
2021/03/04 01:22:17;;;;;;;22.00;15.97;;;13.40;51.30;;;;;;5071506;28;20192;-43
2021/03/04 01:24:43;;;;;;;22.90;16.80;;;13.40;51.20;;;;;;5071903;28;20290;-43
2021/03/04 01:27:08;;;;;;;23.57;16.27;;;13.50;51.30;;;;;;5067052;28;20311;-43
2021/03/04 01:29:34;;;;;;;22.47;15.97;;;13.50;51.20;;;;;;5070064;28;20710;-43
2021/03/04 01:32:00;;;;;;;21.93;14.90;;;13.50;51.20;;;;;;5071873;28;20496;-43
2021/03/04 01:34:25;;;;;;;21.23;15.60;;;13.50;51.20;;;;;;5072189;28;20856;-43
2021/03/04 01:36:51;;;;;;;25.43;15.10;;;13.50;51.10;;;;;;5071781;28;20298;-43
2021/03/04 01:39:17;;;;;;;20.33;15.77;;;13.50;51.10;;;;;;5071624;28;20192;-44
2021/03/04 01:41:42;;;;;;;19.20;14.07;;;13.60;51.20;;;;;;5069910;28;20200;-43
2021/03/04 01:44:08;;;;;;;21.40;15.23;;;13.50;51.10;;;;;;5071658;28;20678;-43
2021/03/04 01:46:34;;;;;;;19.40;15.60;;;13.60;51.20;;;;;;5072485;28;20295;-43
2021/03/04 01:48:59;;;;;;;22.30;16.13;;;13.60;51.20;;;;;;5071059;28;20207;-43
2021/03/04 01:51:26;;;;;;;28.63;17.07;;;13.60;51.10;;;;;;5071250;28;20430;-43
2021/03/04 01:53:51;;;;;;;25.13;16.00;;;13.40;51.50;;;;;;5066341;28;20188;-43
2021/03/04 01:56:17;;;;;;;21.13;15.40;;;13.30;52.00;;;;;;5070654;28;20510;-43
2021/03/04 01:58:43;;;;;;;22.10;15.90;;;13.30;52.00;;;;;;5069931;28;20203;-43
2021/03/04 02:01:09;;;;;;;22.70;15.50;;;13.30;51.90;;;;;;5071151;28;20263;-43
2021/03/04 02:03:34;;;;;;;19.77;15.43;;;13.30;51.70;;;;;;5049191;28;20576;-43
2021/03/04 02:06:01;;;;;;;21.90;15.90;;;13.40;51.80;;;;;;5070159;28;20208;-43
2021/03/04 02:08:41;;;;;;;22.30;16.33;;;13.40;51.60;;;;;;5072339;28;20192;-43
2021/03/04 02:11:15;;;;;;;19.53;14.33;;;13.40;51.70;;;;;;5068365;28;20529;-43
2021/03/04 02:13:45;;;;;;;21.50;15.50;;;13.40;51.50;;;;;;5071591;28;20813;-43
2021/03/04 02:16:32;;;;;;;23.73;16.13;;;13.40;51.50;;;;;;5066993;28;20441;-43
2021/03/04 02:19:01;;;;;;;22.93;15.53;;;13.30;51.40;;;;;;5020706;28;20442;-43
2021/03/04 02:21:48;;;;;;;19.30;15.10;;;13.20;51.50;;;;;;5069810;28;20870;-43
2021/03/04 02:24:27;;;;;;;21.50;15.40;;;13.30;51.50;;;;;;5066348;28;20464;-43
2021/03/04 02:27:09;;;;;;;22.67;14.40;;;13.30;51.30;;;;;;5071217;28;20963;-43
2021/03/04 02:29:45;;;;;;;19.67;14.00;;;13.30;51.20;;;;;;5066944;28;20565;-43
2021/03/04 02:32:12;;;;;;;21.53;14.30;;;13.40;51.10;;;;;;5070753;28;20870;-43
2021/03/04 02:34:50;;;;;;;18.87;14.30;;;13.40;51.20;;;;;;5069734;28;20430;-43
2021/03/04 02:37:21;;;;;;;19.53;14.03;;;13.40;51.20;;;;;;5069244;28;20462;-43
2021/03/04 02:39:49;;;;;;;17.83;14.37;;;13.40;51.10;;;;;;5070879;28;20426;-43
2021/03/04 02:42:20;;;;;;;20.33;15.20;;;13.30;51.30;;;;;;5071065;28;20430;-43
2021/03/04 02:44:48;;;;;;;24.23;14.90;;;13.20;51.60;;;;;;5069594;28;20426;-43
2021/03/04 02:47:16;;;;;;;18.17;13.90;;;13.20;51.50;;;;;;5071495;28;21212;-43
2021/03/04 02:49:44;;;;;;;21.73;16.77;;;13.20;51.60;;;;;;5069873;28;20431;-43
2021/03/04 02:52:10;;;;;;;22.40;14.33;;;13.20;51.60;;;;;;5070680;28;20823;-43
2021/03/04 02:54:37;;;;;;;19.27;15.77;;;13.10;51.80;;;;;;5070126;28;20449;-43
2021/03/04 02:57:04;;;;;;;19.87;14.63;;;13.10;51.90;;;;;;5070315;28;20442;-43
2021/03/04 02:59:31;;;;;;;20.40;15.07;;;13.10;51.80;;;;;;5071704;28;20849;-43
2021/03/04 03:01:57;;;;;;;17.63;15.20;;;13.10;51.90;;;;;;5070510;28;20426;-43
2021/03/04 03:04:25;;;;;;;19.33;15.37;;;13.00;51.90;;;;;;5068568;28;20441;-43
2021/03/04 03:06:52;;;;;;;26.03;15.57;;;13.00;52.10;;;;;;5070206;28;20485;-43
2021/03/04 03:09:18;;;;;;;21.43;15.60;;;13.00;52.10;;;;;;5048873;28;20560;-43
2021/03/04 03:11:43;;;;;;;18.97;14.57;;;13.00;52.10;;;;;;5070515;28;20525;-43
2021/03/04 03:14:10;;;;;;;20.80;14.90;;;13.00;52.00;;;;;;5070186;28;20925;-43
2021/03/04 03:16:36;;;;;;;22.57;14.30;;;13.00;52.00;;;;;;5079423;28;20195;-43
2021/03/04 03:19:02;;;;;;;21.27;15.77;;;13.00;52.10;;;;;;5069926;28;21079;-43
2021/03/04 03:21:27;;;;;;;19.20;14.77;;;12.90;52.10;;;;;;5073053;28;20192;-43
2021/03/04 03:23:53;;;;;;;20.10;15.53;;;13.00;52.20;;;;;;5074297;28;20207;-43
2021/03/04 03:26:18;;;;;;;23.20;15.57;;;12.90;52.20;;;;;;5073181;28;20544;-43
2021/03/04 03:28:44;;;;;;;25.53;15.13;;;12.80;52.60;;;;;;5063662;28;20202;-43
2021/03/04 03:31:12;;;;;;;22.60;14.67;;;12.60;53.00;;;;;;5072546;28;20231;-43
2021/03/04 03:33:38;;;;;;;21.70;14.90;;;12.40;53.60;;;;;;5066664;28;20188;-43
2021/03/04 03:36:07;;;;;;;22.87;15.70;;;12.50;53.70;;;;;;5073333;28;20488;-43
2021/03/04 03:38:35;;;;;;;19.20;14.33;;;12.50;53.70;;;;;;5073245;28;20430;-43
2021/03/04 03:41:01;;;;;;;21.80;15.70;;;12.50;53.60;;;;;;5073342;28;20917;-43
2021/03/04 03:43:27;;;;;;;25.60;15.13;;;12.40;53.50;;;;;;5074248;28;21074;-43
2021/03/04 03:45:54;;;;;;;18.90;15.47;;;12.40;53.70;;;;;;5073155;28;20467;-43
2021/03/04 03:48:22;;;;;;;25.70;15.63;;;12.10;54.20;;;;;;5074014;28;20475;-43
2021/03/04 03:50:52;;;;;;;21.30;16.20;;;12.20;54.10;;;;;;5073639;28;20449;-43
2021/03/04 03:53:18;;;;;;;19.60;15.40;;;11.90;54.90;;;;;;5074059;28;20867;-43
2021/03/04 03:55:49;;;;;;;21.03;14.53;;;12.00;55.00;;;;;;5073315;28;20430;-43
2021/03/04 03:58:17;;;;;;;22.93;15.57;;;12.00;54.60;;;;;;5073080;28;20442;-43
2021/03/04 04:00:44;;;;;;;19.93;14.37;;;11.80;54.70;;;;;;5072118;28;20834;-43
2021/03/04 04:03:10;;;;;;;22.57;14.87;;;11.70;55.50;;;;;;5073739;28;20461;-43
2021/03/04 04:05:37;;;;;;;19.23;14.60;;;11.80;55.40;;;;;;5072316;28;20430;-43
2021/03/04 04:08:04;;;;;;;21.83;14.43;;;11.90;55.20;;;;;;5073942;28;20486;-43
2021/03/04 04:10:31;;;;;;;23.27;14.87;;;12.00;54.90;;;;;;5072827;28;20499;-43
2021/03/04 04:12:58;;;;;;;20.57;15.53;;;11.90;54.80;;;;;;5072737;28;20430;-43
2021/03/04 04:15:25;;;;;;;21.90;14.90;;;11.70;55.10;;;;;;5072425;28;20426;-43
2021/03/04 04:17:53;;;;;;;25.73;16.20;;;11.70;55.40;;;;;;5073845;28;20434;-43
2021/03/04 04:20:20;;;;;;;19.97;15.40;;;11.50;55.50;;;;;;5049519;28;20442;-43
2021/03/04 04:22:47;;;;;;;21.73;16.90;;;11.30;56.30;;;;;;5048288;28;20438;-42
2021/03/04 04:25:14;;;;;;;23.03;16.00;;;11.50;56.20;;;;;;5073427;28;20434;-43
2021/03/04 04:27:40;;;;;;;23.27;15.47;;;11.70;55.70;;;;;;5065472;28;20482;-43
2021/03/04 04:30:07;;;;;;;18.10;13.97;;;11.90;55.10;;;;;;5071153;28;20540;-43
2021/03/04 04:32:33;;;;;;;20.53;15.50;;;12.10;54.70;;;;;;5073789;28;20518;-43
2021/03/04 04:34:59;;;;;;;26.23;14.43;;;12.10;54.20;;;;;;5072439;28;20438;-43
2021/03/04 04:37:25;;;;;;;23.50;14.20;;;12.20;53.90;;;;;;5072916;28;20445;-43
2021/03/04 04:39:51;;;;;;;19.50;14.23;;;12.20;53.70;;;;;;5072587;28;20283;-42
2021/03/04 04:42:16;;;;;;;19.57;14.47;;;12.20;53.80;;;;;;5072750;28;20204;-43
2021/03/04 04:44:42;;;;;;;27.13;16.30;;;12.20;53.70;;;;;;5072376;28;20188;-43
2021/03/04 04:47:08;;;;;;;16.97;14.20;;;12.30;53.50;;;;;;5072972;28;20261;-43
2021/03/04 04:49:33;;;;;;;21.90;14.80;;;12.30;53.20;;;;;;5073013;28;20530;-43
2021/03/04 04:51:59;;;;;;;25.33;15.30;;;12.30;53.10;;;;;;5072583;28;20203;-43
2021/03/04 04:54:24;;;;;;;21.03;14.80;;;12.30;53.00;;;;;;5072131;28;20199;-43
2021/03/04 04:56:50;;;;;;;19.23;14.70;;;12.40;53.00;;;;;;5071591;28;20199;-43
2021/03/04 04:59:15;;;;;;;18.73;15.37;;;12.30;53.00;;;;;;5082240;28;20192;-43
2021/03/04 05:01:41;;;;;;;19.70;13.60;;;12.30;53.10;;;;;;5072936;28;20230;-43
2021/03/04 05:04:07;;;;;;;25.70;14.93;;;12.30;53.00;;;;;;5072189;28;20192;-43
2021/03/04 05:06:32;;;;;;;18.57;14.20;;;12.10;53.10;;;;;;5070343;28;20227;-43
2021/03/04 05:08:58;;;;;;;21.53;15.93;;;12.10;53.30;;;;;;5072655;28;20199;-43
2021/03/04 05:11:24;;;;;;;19.50;14.90;;;12.00;53.50;;;;;;5050130;28;20189;-43
2021/03/04 05:13:49;;;;;;;18.37;13.33;;;11.90;53.50;;;;;;5071026;28;20277;-42
2021/03/04 05:16:15;;;;;;;20.50;15.30;;;11.90;53.50;;;;;;5069287;28;20204;-43
2021/03/04 05:18:40;;;;;;;20.23;13.97;;;11.90;53.30;;;;;;5072223;28;20334;-43
2021/03/04 05:21:06;;;;;;;20.00;14.63;;;11.90;53.30;;;;;;5071950;28;20184;-43
2021/03/04 05:23:33;;;;;;;21.90;14.50;;;12.00;53.10;;;;;;5069749;28;20192;-43
2021/03/04 05:25:58;;;;;;;17.70;14.57;;;12.10;52.90;;;;;;5071588;28;20192;-43
2021/03/04 05:28:24;;;;;;;18.40;14.87;;;12.10;52.60;;;;;;5071406;28;20863;-43
2021/03/04 05:30:52;;;;;;;17.37;13.63;;;12.20;52.50;;;;;;5071402;28;20314;-42
2021/03/04 05:33:20;;;;;;;17.80;13.47;;;12.10;52.40;;;;;;5072845;28;20554;-43
2021/03/04 05:35:46;;;;;;;19.07;13.20;;;12.10;52.50;;;;;;5071337;28;20461;-43
2021/03/04 05:38:12;;;;;;;19.23;13.13;;;12.10;52.40;;;;;;5053075;28;20864;-42
2021/03/04 05:40:38;;;;;;;17.10;12.80;;;12.20;52.40;;;;;;5070765;28;20180;-43
2021/03/04 05:43:04;;;;;;;17.10;13.27;;;12.20;52.40;;;;;;5070615;28;20422;-43
2021/03/04 05:45:30;;;;;;;16.00;13.23;;;12.20;52.20;;;;;;5071501;28;20730;-43
2021/03/04 05:47:57;;;;;;;17.67;13.00;;;12.20;52.00;;;;;;5071626;28;20486;-42
2021/03/04 05:50:27;;;;;;;18.23;14.23;;;12.20;51.90;;;;;;5070660;28;20426;-42
2021/03/04 05:53:03;;;;;;;22.87;15.00;;;12.10;52.00;;;;;;5071265;28;20426;-42
2021/03/04 05:55:29;;;;;;;25.60;16.93;;;12.20;52.00;;;;;;5071415;28;20813;-43
2021/03/04 05:57:57;;;;;;;27.83;18.50;;;12.20;51.80;;;;;;5070664;28;20434;-43
2021/03/04 06:00:23;;;;;;;26.07;18.30;;;12.00;51.90;;;;;;5070948;28;20204;-43
2021/03/04 06:02:50;;;;;;;26.57;16.73;;;12.00;52.00;;;;;;5071605;28;20952;-43
2021/03/04 06:05:16;;;;;;;17.97;14.53;;;11.90;52.20;;;;;;5071167;28;20874;-43
2021/03/04 06:07:43;;;;;;;22.47;15.90;;;11.90;52.30;;;;;;5071582;28;20485;-43
2021/03/04 06:10:10;;;;;;;19.80;14.50;;;11.80;52.30;;;;;;5070023;28;20192;-43
2021/03/04 06:12:41;;;;;;;16.83;13.87;;;11.80;52.50;;;;;;5070578;28;20441;-44
2021/03/04 06:15:09;;;;;;;30.83;12.17;;;11.80;52.60;;;;;;5070848;28;20458;-43
2021/03/04 06:17:34;;;;;;;17.27;11.47;;;11.80;53.90;;;;;;5069402;28;20928;-43
2021/03/04 06:20:03;;;;;;;15.37;12.57;;;12.10;54.40;;;;;;5069468;28;20521;-43
2021/03/04 06:22:31;;;;;;;16.70;12.03;;;12.30;53.80;;;;;;5059162;28;20476;-43
2021/03/04 06:24:59;;;;;;;17.93;11.97;;;12.10;52.90;;;;;;5074720;28;20433;-43
2021/03/04 06:27:29;;;;;;;20.57;12.40;;;12.30;53.40;;;;;;5070956;28;20482;-43
2021/03/04 06:29:59;;;;;;;17.30;14.43;;;12.60;53.40;;;;;;5067135;28;20470;-43
2021/03/04 06:32:25;;;;;;;13.80;11.90;;;12.80;52.60;;;;;;5069930;28;20438;-43
2021/03/04 06:35:05;;;;;;;17.47;13.07;;;13.00;51.90;;;;;;5069859;28;20522;-43
2021/03/04 06:37:33;;;;;;;23.23;14.00;;;13.10;51.30;;;;;;5068995;28;20452;-43
2021/03/04 06:39:59;;;;;;;25.43;13.10;;;13.10;51.10;;;;;;5070460;28;20434;-43
2021/03/04 06:42:25;;;;;;;15.70;12.27;;;13.10;50.70;;;;;;5069929;28;20453;-43
2021/03/04 06:44:53;;;;;;;18.40;13.57;;;13.20;50.50;;;;;;5068978;28;20605;-43
2021/03/04 06:47:24;;;;;;;21.30;14.67;;;13.20;50.20;;;;;;5069482;28;20477;-43
2021/03/04 06:49:51;;;;;;;18.23;14.87;;;13.30;50.10;;;;;;5069800;28;20450;-43
2021/03/04 06:52:29;;;;;;;23.63;15.90;;;13.30;50.10;;;;;;5062872;28;20509;-43
2021/03/04 06:55:06;;;;;;;21.23;16.03;;;13.30;50.20;;;;;;5058442;28;20432;-43
2021/03/04 06:57:31;;;;;;;21.37;14.60;;;13.30;50.30;;;;;;5071579;28;20500;-43
2021/03/04 06:59:57;;;;;;;22.23;14.47;;;13.30;50.40;;;;;;5070428;28;20909;-44
2021/03/04 07:02:29;;;;;;;19.77;15.27;;;13.40;50.20;;;;;;5070951;28;20196;-43
2021/03/04 07:05:00;;;;;;;20.93;14.60;;;13.40;50.20;;;;;;5052489;28;20282;-44
2021/03/04 07:07:27;;;;;;;17.67;13.33;;;13.40;50.20;;;;;;5070936;28;20481;-43
2021/03/04 07:09:55;;;;;;;19.43;14.80;;;13.30;50.00;;;;;;5069679;28;20980;-43
2021/03/04 07:12:23;;;;;;;19.37;13.10;;;13.40;50.00;;;;;;5069515;28;20464;-43
2021/03/04 07:14:50;;;;;;;20.10;15.43;;;13.50;49.80;;;;;;5072380;28;20434;-43
2021/03/04 07:17:25;;;;;;;20.33;14.20;;;13.50;49.70;;;;;;5070311;28;20852;-43
2021/03/04 07:19:56;;;;;;;18.50;13.70;;;13.50;49.90;;;;;;5069532;28;20433;-43
2021/03/04 07:22:21;;;;;;;18.90;13.30;;;13.40;49.90;;;;;;5069779;28;20480;-44
2021/03/04 07:24:47;;;;;;;22.40;15.13;;;13.50;49.90;;;;;;5069412;28;20430;-43
2021/03/04 07:27:15;;;;;;;21.20;16.00;;;13.60;49.60;;;;;;5071084;28;20227;-43
2021/03/04 07:29:42;;;;;;;17.40;13.00;;;13.70;49.60;;;;;;5069719;28;20228;-43
2021/03/04 07:32:09;;;;;;;23.17;15.40;;;13.80;49.40;;;;;;5070108;28;21043;-44
2021/03/04 07:34:35;;;;;;;18.70;14.63;;;13.90;49.20;;;;;;5069325;28;20823;-43
2021/03/04 07:37:02;;;;;;;18.60;15.13;;;13.90;49.20;;;;;;5070349;28;20907;-43
2021/03/04 07:39:33;;;;;;;18.63;14.50;;;14.00;49.00;;;;;;5069541;28;21180;-43
2021/03/04 07:41:58;;;;;;;20.17;14.20;;;14.10;49.00;;;;;;5068953;28;20507;-44
2021/03/04 07:44:26;;;;;;;21.80;16.20;;;14.10;48.90;;;;;;5070273;28;20517;-43
2021/03/04 07:47:00;;;;;;;19.03;13.90;;;14.20;48.70;;;;;;5070083;28;20226;-43
2021/03/04 07:49:32;;;;;;;22.43;15.70;;;14.20;48.80;;;;;;5070086;28;20909;-43
2021/03/04 07:52:18;;;;;;;17.83;15.47;;;14.30;48.90;;;;;;5070710;28;20429;-43
2021/03/04 07:54:50;;;;;;;19.37;14.80;;;14.40;48.60;;;;;;5070342;28;20852;-43
2021/03/04 07:57:23;;;;;;;19.80;14.87;;;14.50;48.50;;;;;;5071021;28;20434;-44
2021/03/04 07:59:50;;;;;;;15.30;13.67;;;14.60;48.20;;;;;;5070436;28;20430;-44
2021/03/04 08:02:23;;;;;;;17.10;13.27;;;14.70;48.20;;;;;;5070540;28;20438;-44
2021/03/04 08:04:49;;;;;;;16.57;13.97;;;14.90;48.00;;;;;;5071821;28;20785;-43
2021/03/04 08:07:24;;;;;;;18.60;14.03;;;15.10;47.60;;;;;;5072607;28;20477;-43
2021/03/04 08:09:50;;;;;;;17.03;13.10;;;15.20;47.10;;;;;;5074012;28;20199;-44
2021/03/04 08:12:16;;;;;;;20.77;12.90;;;15.20;47.00;;;;;;5073941;28;20433;-44
2021/03/04 08:14:54;;;;;;;15.97;13.37;;;15.30;46.50;;;;;;5073784;28;20204;-44
2021/03/04 08:17:20;;;;;;;16.80;14.13;;;15.20;46.30;;;;;;5074311;28;20422;-43
2021/03/04 08:19:46;;;;;;;15.83;13.77;;;15.20;46.70;;;;;;5073689;28;20423;-43
2021/03/04 08:22:17;;;;;;;17.03;14.00;;;15.50;46.70;;;;;;5073680;28;20207;-44
2021/03/04 08:24:45;;;;;;;16.47;13.30;;;15.70;46.60;;;;;;5073676;28;20426;-43
2021/03/04 08:27:11;;;;;;;20.00;12.70;;;15.80;46.40;;;;;;5073235;28;20490;-43
2021/03/04 08:29:45;;;;;;;18.87;13.30;;;15.90;46.40;;;;;;5072341;28;20958;-43
2021/03/04 08:32:13;;;;;;;19.20;13.17;;;16.00;45.90;;;;;;5072430;28;20808;-43
2021/03/04 08:34:39;;;;;;;18.00;12.33;;;16.10;45.40;;;;;;5071286;28;20446;-43
2021/03/04 08:37:06;;;;;;;18.47;12.20;;;16.30;44.30;;;;;;5073778;28;20526;-43
2021/03/04 08:39:33;;;;;;;14.53;12.87;;;16.40;44.20;;;;;;5073270;28;20453;-43
2021/03/04 08:42:07;;;;;;;16.77;13.10;;;16.50;43.80;;;;;;5073146;28;20470;-44
2021/03/04 08:44:33;;;;;;;14.87;12.33;;;16.60;43.10;;;;;;5073058;28;20989;-44
2021/03/04 08:46:59;;;;;;;19.83;13.80;;;16.30;42.80;;;;;;5073233;28;20481;-43
2021/03/04 08:49:25;;;;;;;20.10;13.10;;;16.40;43.30;;;;;;5072870;28;20433;-43
2021/03/04 08:51:50;;;;;;;17.53;12.07;;;16.30;43.10;;;;;;5072996;28;20920;-43
2021/03/04 08:54:24;;;;;;;18.20;13.00;;;16.60;42.30;;;;;;5072964;28;20691;-46
2021/03/04 08:57:03;;;;;;;20.67;16.00;;;16.60;41.80;;;;;;5073694;28;20196;-43
2021/03/04 08:59:29;;;;;;;17.73;12.83;;;16.70;43.10;;;;;;5072884;28;20921;-44
2021/03/04 09:01:57;;;;;;;15.93;11.50;;;16.60;41.90;;;;;;5071503;28;20480;-43
2021/03/04 09:04:24;;;;;;;12.63;9.93;;;16.60;41.20;;;;;;5072831;28;20505;-43
2021/03/04 09:06:50;;;;;;;20.83;12.10;;;16.80;41.20;;;;;;5066990;28;20505;-43
2021/03/04 09:09:27;;;;;;;13.47;11.80;;;17.00;39.80;;;;;;5072739;28;20427;-44
2021/03/04 09:11:55;;;;;;;12.87;9.30;;;17.20;39.10;;;;;;5072705;28;20542;-43
2021/03/04 09:14:32;;;;;;;15.17;9.93;;;17.20;38.70;;;;;;5072940;28;20506;-43
2021/03/04 09:16:59;;;;;;;14.23;10.23;;;17.30;38.00;;;;;;5072297;28;20521;-43
2021/03/04 09:19:33;;;;;;;13.83;11.37;;;17.50;38.00;;;;;;5072486;28;20429;-44
2021/03/04 09:22:03;;;;;;;13.20;9.97;;;17.90;38.20;;;;;;5072643;28;20436;-44
2021/03/04 09:24:29;;;;;;;16.07;9.00;;;18.00;37.50;;;;;;5072662;28;20427;-43
2021/03/04 09:26:55;;;;;;;13.80;10.80;;;18.20;37.00;;;;;;5072951;28;20478;-44
2021/03/04 09:29:21;;;;;;;13.17;10.70;;;18.40;37.00;;;;;;5070081;28;20788;-44
2021/03/04 09:31:54;;;;;;;16.57;10.03;;;18.50;36.70;;;;;;5071813;28;20188;-44
2021/03/04 09:34:30;;;;;;;12.90;9.63;;;18.60;36.40;;;;;;5072447;28;20196;-44
2021/03/04 09:37:07;;;;;;;14.90;9.17;;;18.80;37.00;;;;;;5072757;28;20418;-44
2021/03/04 09:39:46;;;;;;;18.83;9.20;;;18.90;35.70;;;;;;5069814;28;20457;-43
2021/03/04 09:42:17;;;;;;;14.63;9.30;;;18.80;34.80;;;;;;5072597;28;20436;-44
2021/03/04 09:44:54;;;;;;;11.97;9.63;;;19.00;35.50;;;;;;5072148;28;20422;-44
2021/03/04 09:47:23;;;;;;;12.10;9.33;;;19.20;35.00;;;;;;5072432;28;20489;-44
2021/03/04 09:49:50;;;;;;;10.50;8.70;;;19.30;34.50;;;;;;5072057;28;20929;-44
2021/03/04 09:52:36;;;;;;;9.97;8.13;;;19.60;33.70;;;;;;5072251;28;20437;-44
2021/03/04 09:55:17;;;;;;;11.23;7.83;;;19.60;32.80;;;;;;5070179;28;20456;-44
2021/03/04 09:57:44;;;;;;;11.33;7.80;;;19.60;32.70;;;;;;5071345;28;20445;-44
2021/03/04 10:00:16;;;;;;;13.77;8.73;;;19.60;32.50;;;;;;5071673;28;20503;-41
2021/03/04 10:02:46;;;;;;;13.07;8.57;;;19.20;32.70;;;;;;5071691;28;20430;-42
2021/03/04 10:05:17;;;;;;;12.67;8.60;;;19.30;33.20;;;;;;5078630;28;20529;-42
2021/03/04 10:07:43;;;;;;;12.50;8.17;;;19.30;33.00;;;;;;5071659;28;20486;-42
2021/03/04 10:10:36;;;;;;;12.00;8.10;;;19.20;33.10;;;;;;5071510;28;20425;-41
2021/03/04 10:13:01;;;;;;;20.40;8.57;;;19.30;33.10;;;;;;5058030;28;20445;-42
2021/03/04 10:15:39;;;;;;;12.93;7.63;;;19.30;32.80;;;;;;5070836;28;20929;-43
2021/03/04 10:18:10;;;;;;;15.90;9.00;;;19.50;33.30;;;;;;5072010;28;20294;-42
2021/03/04 10:20:37;;;;;;;11.77;7.50;;;19.70;33.50;;;;;;5071035;28;20513;-42
2021/03/04 10:23:03;;;;;;;19.30;9.40;;;19.60;32.80;;;;;;5070073;28;20560;-42
2021/03/04 10:25:30;;;;;;;17.13;9.80;;;19.70;33.00;;;;;;5071073;28;20513;-42
2021/03/04 10:27:58;;;;;;;16.60;9.70;;;19.90;33.30;;;;;;5071074;28;20957;-43
2021/03/04 10:30:24;;;;;;;13.60;9.60;;;20.00;34.10;;;;;;5070715;28;20466;-42
2021/03/04 10:32:50;;;;;;;22.77;12.30;;;20.30;34.70;;;;;;5071224;28;20423;-42
2021/03/04 10:35:16;;;;;;;17.73;12.23;;;20.30;35.50;;;;;;5071302;28;20448;-42
2021/03/04 10:37:43;;;;;;;20.00;12.53;;;20.50;35.40;;;;;;5070212;28;20192;-42
2021/03/04 10:40:11;;;;;;;20.37;10.40;;;20.40;35.00;;;;;;5069747;28;20937;-41
2021/03/04 10:42:37;;;;;;;13.20;9.73;;;20.40;33.80;;;;;;5069637;28;21069;-42
2021/03/04 10:45:05;;;;;;;16.60;9.47;;;20.40;33.30;;;;;;5070649;28;20434;-46
2021/03/04 10:47:31;;;;;;;20.50;10.23;;;20.60;32.90;;;;;;5068929;28;20489;-45
2021/03/04 10:49:57;;;;;;;17.43;12.50;;;20.60;33.20;;;;;;5068820;28;20993;-46
2021/03/04 10:52:24;;;;;;;17.07;12.20;;;20.60;34.30;;;;;;5070855;28;20196;-42
2021/03/04 10:54:50;;;;;;;17.20;13.97;;;20.70;34.90;;;;;;5070194;28;20441;-43
2021/03/04 10:57:16;;;;;;;14.10;12.40;;;20.90;35.30;;;;;;5071438;28;20430;-44
2021/03/04 10:59:41;;;;;;;20.30;12.63;;;21.10;34.90;;;;;;5070044;28;20430;-42
2021/03/04 11:02:07;;;;;;;16.77;12.20;;;21.20;34.80;;;;;;5070457;28;20195;-42
2021/03/04 11:04:33;;;;;;;17.77;12.43;;;21.10;33.90;;;;;;5070278;28;20218;-42
2021/03/04 11:06:58;;;;;;;21.30;12.80;;;21.10;33.80;;;;;;5070226;28;20227;-42
2021/03/04 11:09:24;;;;;;;18.50;12.10;;;21.20;34.00;;;;;;5069894;28;20205;-42
2021/03/04 11:11:50;;;;;;;24.10;13.07;;;21.40;34.80;;;;;;5069584;28;20192;-44
2021/03/04 11:14:15;;;;;;;25.10;12.37;;;21.70;34.60;;;;;;5070384;28;20207;-44
2021/03/04 11:16:42;;;;;;;17.53;11.83;;;21.90;33.50;;;;;;5068993;28;20192;-43
2021/03/04 11:19:09;;;;;;;15.33;11.73;;;22.00;33.70;;;;;;5071570;28;20230;-44
2021/03/04 11:21:35;;;;;;;22.30;12.77;;;21.80;32.80;;;;;;5069267;28;20465;-44
2021/03/04 11:24:01;;;;;;;17.60;13.77;;;21.90;33.20;;;;;;5071558;28;20423;-44
2021/03/04 11:26:27;;;;;;;17.97;13.70;;;21.90;32.90;;;;;;5069720;28;21001;-44
2021/03/04 11:28:52;;;;;;;16.60;12.57;;;21.90;33.30;;;;;;5070454;28;20268;-43
2021/03/04 11:31:18;;;;;;;24.23;13.47;;;22.10;33.60;;;;;;5069699;28;20253;-44
2021/03/04 11:33:44;;;;;;;24.33;12.40;;;22.20;32.40;;;;;;5070879;28;20196;-44
2021/03/04 11:36:09;;;;;;;24.13;14.43;;;22.40;32.80;;;;;;5070821;28;20857;-44
2021/03/04 11:38:35;;;;;;;21.97;11.77;;;22.60;33.70;;;;;;5070424;28;20313;-43
2021/03/04 11:41:00;;;;;;;20.93;11.53;;;22.90;33.70;;;;;;5073707;28;20207;-45
2021/03/04 11:43:26;;;;;;;17.27;13.00;;;23.00;32.70;;;;;;5074266;28;20204;-44
2021/03/04 11:45:52;;;;;;;18.80;12.47;;;23.10;32.70;;;;;;5071777;28;20198;-44
2021/03/04 11:48:17;;;;;;;27.83;15.37;;;23.10;31.80;;;;;;5074301;28;20255;-44
2021/03/04 11:50:43;;;;;;;20.90;12.80;;;23.00;31.90;;;;;;5073607;28;20673;-44
2021/03/04 11:53:08;;;;;;;15.73;12.00;;;23.10;31.80;;;;;;5073989;28;20227;-45
2021/03/04 11:55:34;;;;;;;29.80;14.60;;;23.00;31.90;;;;;;5074010;28;20196;-43
2021/03/04 11:58:00;;;;;;;17.27;13.53;;;22.80;31.80;;;;;;5074471;28;20224;-44
2021/03/04 12:00:27;;;;;;;20.47;13.90;;;22.80;31.70;;;;;;5073134;28;20500;-44
2021/03/04 12:02:52;;;;;;;18.27;14.37;;;22.90;32.00;;;;;;5073961;28;20198;-44
2021/03/04 12:05:18;;;;;;;23.80;13.37;;;23.10;31.70;;;;;;5073471;28;20430;-43
2021/03/04 12:07:44;;;;;;;20.87;12.87;;;23.00;31.20;;;;;;5074454;28;20747;-45
2021/03/04 12:10:11;;;;;;;22.10;12.07;;;22.90;31.70;;;;;;5072231;28;20191;-45
2021/03/04 12:12:37;;;;;;;20.20;11.30;;;22.90;31.70;;;;;;5072517;28;20187;-44
2021/03/04 12:15:04;;;;;;;18.90;10.97;;;22.80;31.90;;;;;;5073546;28;21255;-44
2021/03/04 12:17:30;;;;;;;15.43;9.37;;;22.60;31.20;;;;;;5073073;28;20430;-44
2021/03/04 12:19:55;;;;;;;15.30;8.83;;;22.60;31.20;;;;;;5069452;28;20793;-44
2021/03/04 12:22:21;;;;;;;15.00;9.70;;;22.70;30.80;;;;;;5070723;28;20551;-45
2021/03/04 12:24:47;;;;;;;18.70;9.17;;;22.80;30.80;;;;;;5066166;28;20193;-44
2021/03/04 12:27:12;;;;;;;18.23;9.80;;;22.80;29.90;;;;;;5067542;28;20715;-45
2021/03/04 12:29:38;;;;;;;15.53;8.97;;;22.60;30.00;;;;;;5072076;28;20599;-42
2021/03/04 12:32:04;;;;;;;12.60;7.30;;;22.50;30.00;;;;;;5072454;28;20199;-44